Time;durP1;ratioP1;P1;durP2;ratioP2;P2;SDS_P1;SDS_P2;PMS_P1;PMS_P2;Temp;Humidity;BMP_temperature;BMP_pressure;BME280_temperature;BME280_humidity;BME280_pressure;Samples;Min_cycle;Max_cycle;Signal;HPM_P1;HPM_P2
2023/06/18 00:01:07;;;;;;;;;;;;;;;17.78;100.00;99016.56;5015207;28;870;-63
2023/06/18 00:03:34;;;;;;;;;;;;;;;17.79;100.00;99011.75;5015509;28;823;-64
2023/06/18 00:06:01;;;;;;;;;;;;;;;17.80;100.00;99018.91;5015369;28;1927;-63
2023/06/18 00:08:28;;;;;;;;;;;;;;;17.79;100.00;99020.88;5015083;28;913;-62
2023/06/18 00:10:55;;;;;;;;;;;;;;;17.80;100.00;99024.47;5014911;28;1199;-62
2023/06/18 00:13:21;;;;;;;;;;;;;;;17.78;100.00;99029.75;5014990;28;842;-64
2023/06/18 00:15:49;;;;;;;;;;;;;;;17.73;100.00;99034.75;5015068;28;929;-63
2023/06/18 00:18:15;;;;;;;;;;;;;;;17.71;100.00;99030.88;5014754;28;928;-62
2023/06/18 00:20:42;;;;;;;;;;;;;;;17.67;100.00;99033.81;5015039;28;803;-62
2023/06/18 00:23:08;;;;;;;;;;;;;;;17.66;100.00;99040.66;5015062;28;850;-63
2023/06/18 00:25:36;;;;;;;;;;;;;;;17.63;100.00;99041.59;5014959;28;843;-63
2023/06/18 00:28:03;;;;;;;;;;;;;;;17.59;100.00;99045.81;5014896;28;1906;-63
2023/06/18 00:30:31;;;;;;;;;;;;;;;17.55;100.00;99041.13;5014922;28;812;-64
2023/06/18 00:32:59;;;;;;;;;;;;;;;17.52;100.00;99039.28;5014649;28;807;-63
2023/06/18 00:35:25;;;;;;;;;;;;;;;17.53;100.00;99031.69;5014550;28;843;-63
2023/06/18 00:37:55;;;;;;;;;;;;;;;17.54;100.00;99036.03;5014575;28;895;-62
2023/06/18 00:40:23;;;;;;;;;;;;;;;17.53;100.00;99034.47;5014513;28;898;-63
2023/06/18 00:42:52;;;;;;;;;;;;;;;17.57;100.00;99037.13;5014488;28;882;-64
2023/06/18 00:45:20;;;;;;;;;;;;;;;17.58;100.00;99033.06;5014332;28;904;-63
2023/06/18 00:47:48;;;;;;;;;;;;;;;17.56;100.00;99041.94;5014328;28;1953;-62
2023/06/18 00:50:18;;;;;;;;;;;;;;;17.58;100.00;99044.25;5014350;28;815;-65
2023/06/18 00:52:47;;;;;;;;;;;;;;;17.58;100.00;99045.03;5014444;28;839;-63
2023/06/18 00:55:18;;;;;;;;;;;;;;;17.57;100.00;99046.25;5014105;28;862;-62
2023/06/18 00:57:59;;;;;;;;;;;;;;;17.58;100.00;99036.66;4996868;28;1470;-64
2023/06/18 01:00:28;;;;;;;;;;;;;;;17.60;100.00;99045.31;5014203;28;930;-62
2023/06/18 01:02:55;;;;;;;;;;;;;;;17.60;100.00;99058.50;5013946;28;879;-63
2023/06/18 01:05:25;;;;;;;;;;;;;;;17.63;100.00;99049.22;5014143;28;811;-64
2023/06/18 01:07:53;;;;;;;;;;;;;;;17.63;100.00;99035.25;5014058;28;1886;-63
2023/06/18 01:10:21;;;;;;;;;;;;;;;17.62;100.00;99044.84;4996085;28;1034;-62
2023/06/18 01:12:48;;;;;;;;;;;;;;;17.63;100.00;99029.66;5013583;28;1443;-63
2023/06/18 01:15:16;;;;;;;;;;;;;;;17.64;100.00;99043.13;5013873;28;894;-65
2023/06/18 01:17:47;;;;;;;;;;;;;;;17.66;100.00;99037.84;5013797;28;803;-62
2023/06/18 01:20:15;;;;;;;;;;;;;;;17.69;100.00;99042.53;5013802;28;905;-62
2023/06/18 01:22:57;;;;;;;;;;;;;;;17.70;100.00;99051.66;5013762;28;893;-62
2023/06/18 01:25:26;;;;;;;;;;;;;;;17.72;100.00;99046.38;5013798;28;906;-66
2023/06/18 01:27:53;;;;;;;;;;;;;;;17.73;100.00;99051.50;5014567;28;1969;-62
2023/06/18 01:30:20;;;;;;;;;;;;;;;17.71;100.00;99047.66;5014093;28;847;-62
2023/06/18 01:32:47;;;;;;;;;;;;;;;17.73;100.00;99050.72;5013818;28;811;-62
2023/06/18 01:35:16;;;;;;;;;;;;;;;17.73;100.00;99054.31;5013905;28;838;-64
2023/06/18 01:38:15;;;;;;;;;;;;;;;17.74;100.00;99047.47;5013519;28;917;-63
2023/06/18 01:41:00;;;;;;;;;;;;;;;17.70;100.00;99048.88;4990953;28;1226;-62
2023/06/18 01:43:27;;;;;;;;;;;;;;;17.70;100.00;99051.66;5013244;28;930;-62
2023/06/18 01:46:28;;;;;;;;;;;;;;;17.71;100.00;99058.81;5013306;28;799;-65
2023/06/18 01:48:56;;;;;;;;;;;;;;;17.70;100.00;99060.06;4991377;28;1502;-62
2023/06/18 01:51:24;;;;;;;;;;;;;;;17.71;100.00;99065.19;5013246;28;909;-65
2023/06/18 01:53:53;;;;;;;;;;;;;;;17.75;100.00;99068.59;5013115;28;899;-62
2023/06/18 01:56:21;;;;;;;;;;;;;;;17.72;100.00;99051.97;5012913;28;981;-64
2023/06/18 01:58:46;;;;;;;;;;;;;;;17.75;100.00;99067.78;5012916;28;894;-62
2023/06/18 02:01:13;;;;;;;;;;;;;;;17.73;100.00;99076.66;5013050;28;827;-63
2023/06/18 02:03:40;;;;;;;;;;;;;;;17.74;100.00;99072.59;5013328;28;819;-63
2023/06/18 02:06:07;;;;;;;;;;;;;;;17.79;100.00;99087.19;5012800;28;1890;-62
2023/06/18 02:08:34;;;;;;;;;;;;;;;17.74;100.00;99086.59;5012935;28;823;-63
2023/06/18 02:11:01;;;;;;;;;;;;;;;17.72;100.00;99088.31;5012554;28;1230;-63
2023/06/18 02:13:28;;;;;;;;;;;;;;;17.74;100.00;99086.59;5012989;28;811;-63
2023/06/18 02:15:54;;;;;;;;;;;;;;;17.73;100.00;99085.03;5012706;28;890;-64
2023/06/18 02:18:21;;;;;;;;;;;;;;;17.72;100.00;99089.06;5012754;28;846;-62
2023/06/18 02:20:54;;;;;;;;;;;;;;;17.70;100.00;99082.41;5012683;28;854;-65
2023/06/18 02:23:20;;;;;;;;;;;;;;;17.77;100.00;99082.06;5012062;28;827;-63
2023/06/18 02:25:48;;;;;;;;;;;;;;;17.79;100.00;99084.41;5012439;28;823;-63
2023/06/18 02:28:14;;;;;;;;;;;;;;;17.79;100.00;99087.19;5012681;28;1985;-63
2023/06/18 02:30:41;;;;;;;;;;;;;;;17.75;100.00;99085.34;5012475;28;906;-65
2023/06/18 02:33:10;;;;;;;;;;;;;;;17.75;100.00;99095.75;5012500;28;862;-64
2023/06/18 02:35:37;;;;;;;;;;;;;;;17.74;100.00;99088.59;5012316;28;823;-65
2023/06/18 02:38:03;;;;;;;;;;;;;;;17.75;100.00;99092.94;5012523;28;874;-63
2023/06/18 02:40:30;;;;;;;;;;;;;;;17.75;100.00;99096.53;5012330;28;830;-64
2023/06/18 02:42:58;;;;;;;;;;;;;;;17.74;100.00;99100.56;5012302;28;883;-63
2023/06/18 02:45:25;;;;;;;;;;;;;;;17.71;100.00;99098.72;5012227;28;886;-62
2023/06/18 02:47:52;;;;;;;;;;;;;;;17.76;100.00;99106.44;5012184;28;1886;-63
2023/06/18 02:50:19;;;;;;;;;;;;;;;17.78;100.00;99088.47;4994486;28;1190;-65
2023/06/18 02:52:46;;;;;;;;;;;;;;;17.78;100.00;99103.19;5012121;28;823;-65
2023/06/18 02:55:13;;;;;;;;;;;;;;;17.78;100.00;99102.44;5012077;28;811;-64
2023/06/18 02:57:41;;;;;;;;;;;;;;;17.76;100.00;99108.47;5012358;28;933;-64
2023/06/18 03:00:10;;;;;;;;;;;;;;;17.79;100.00;99112.34;5012103;28;854;-64
2023/06/18 03:02:37;;;;;;;;;;;;;;;17.79;100.00;99106.75;5011953;28;1027;-64
2023/06/18 03:05:04;;;;;;;;;;;;;;;17.76;100.00;99117.63;5011956;28;1007;-64
2023/06/18 03:07:29;;;;;;;;;;;;;;;17.74;100.00;99114.53;5012061;28;1887;-64
2023/06/18 03:09:56;;;;;;;;;;;;;;;17.78;100.00;99119.97;5012349;28;889;-63
2023/06/18 03:12:24;;;;;;;;;;;;;;;17.76;100.00;99116.88;5011660;28;1395;-63
2023/06/18 03:14:50;;;;;;;;;;;;;;;17.76;100.00;99120.44;5011885;28;827;-64
2023/06/18 03:17:17;;;;;;;;;;;;;;;17.77;100.00;99121.19;5011788;28;846;-62
2023/06/18 03:19:44;;;;;;;;;;;;;;;17.79;100.00;99127.09;5012070;28;878;-64
2023/06/18 03:22:11;;;;;;;;;;;;;;;17.79;100.00;99124.31;5011787;28;874;-64
2023/06/18 03:24:38;;;;;;;;;;;;;;;17.78;100.00;99113.59;5011674;28;850;-64
2023/06/18 03:27:04;;;;;;;;;;;;;;;17.79;100.00;99115.91;5011682;28;1977;-63
2023/06/18 03:29:34;;;;;;;;;;;;;;;17.79;100.00;99121.50;5011659;28;870;-63
2023/06/18 03:32:02;;;;;;;;;;;;;;;17.74;100.00;99110.97;5011753;28;842;-64
2023/06/18 03:34:33;;;;;;;;;;;;;;;17.77;100.00;99112.81;5012954;28;818;-63
2023/06/18 03:37:00;;;;;;;;;;;;;;;17.76;100.00;99111.28;5015752;28;819;-64
2023/06/18 03:39:27;;;;;;;;;;;;;;;17.76;100.00;99112.03;5015574;28;839;-64
2023/06/18 03:41:54;;;;;;;;;;;;;;;17.80;100.00;99109.09;5015575;28;823;-62
2023/06/18 03:44:21;;;;;;;;;;;;;;;17.80;100.00;99114.69;5015462;28;893;-63
2023/06/18 03:46:48;;;;;;;;;;;;;;;17.80;100.00;99100.72;4998055;28;1882;-63
2023/06/18 03:49:19;;;;;;;;;;;;;;;17.85;100.00;99111.28;5015401;28;867;-63
2023/06/18 03:51:46;;;;;;;;;;;;;;;17.91;100.00;99108.63;5015350;28;855;-62
2023/06/18 03:54:12;;;;;;;;;;;;;;;17.97;100.00;99106.75;5015383;28;800;-64
2023/06/18 03:56:39;;;;;;;;;;;;;;;17.99;100.00;99107.06;5015552;28;893;-62
2023/06/18 03:59:06;;;;;;;;;;;;;;;18.06;100.00;99105.97;5015506;28;874;-64
2023/06/18 04:01:33;;;;;;;;;;;;;;;18.16;100.00;99099.84;5015718;28;803;-64
2023/06/18 04:04:01;;;;;;;;;;;;;;;18.27;100.00;99110.53;5015425;28;1004;-64
2023/06/18 04:06:27;;;;;;;;;;;;;;;18.42;100.00;99109.88;5015033;28;1949;-62
2023/06/18 04:08:54;;;;;;;;;;;;;;;18.54;100.00;99114.44;5015376;28;835;-62
2023/06/18 04:11:22;;;;;;;;;;;;;;;18.55;100.00;99111.19;5015036;28;1270;-63
2023/06/18 04:13:49;;;;;;;;;;;;;;;18.67;100.00;99120.63;5015295;28;890;-66
2023/06/18 04:16:16;;;;;;;;;;;;;;;18.76;100.00;99114.19;5015001;28;847;-62
2023/06/18 04:18:45;;;;;;;;;;;;;;;18.76;100.00;99117.00;5014919;28;859;-67
2023/06/18 04:21:12;;;;;;;;;;;;;;;18.81;100.00;99115.59;5014904;28;819;-64
2023/06/18 04:23:43;;;;;;;;;;;;;;;18.73;100.00;99123.53;5014803;28;830;-62
2023/06/18 04:26:09;;;;;;;;;;;;;;;18.70;100.00;99118.88;5014670;28;1910;-62
2023/06/18 04:40:41;;;;;;;;;;;;;;;19.09;100.00;99133.00;5014813;28;641;-65
2023/06/18 04:43:08;;;;;;;;;;;;;;;19.21;100.00;99137.56;5014439;28;924;-66
2023/06/18 04:45:36;;;;;;;;;;;;;;;19.20;100.00;99138.81;5013859;28;882;-62
2023/06/18 04:48:05;;;;;;;;;;;;;;;19.27;100.00;99135.66;5014496;28;1890;-62
2023/06/18 04:50:34;;;;;;;;;;;;;;;19.40;100.00;99141.00;4996996;28;1264;-64
2023/06/18 04:53:02;;;;;;;;;;;;;;;19.48;100.00;99135.78;5014183;28;934;-63
2023/06/18 04:55:28;;;;;;;;;;;;;;;19.64;100.00;99140.97;5014281;28;822;-63
2023/06/18 04:57:55;;;;;;;;;;;;;;;19.69;100.00;99150.72;5014293;28;979;-65
2023/06/18 05:00:26;;;;;;;;;;;;;;;19.73;100.00;99145.72;5014172;28;846;-63
2023/06/18 05:02:52;;;;;;;;;;;;;;;19.87;100.00;99153.38;5014145;28;913;-62
2023/06/18 05:05:19;;;;;;;;;;;;;;;20.09;100.00;99155.03;5013974;28;921;-62
2023/06/18 05:07:46;;;;;;;;;;;;;;;20.23;100.00;99159.88;5013994;28;1948;-62
2023/06/18 05:10:12;;;;;;;;;;;;;;;20.36;100.00;99162.38;5014063;28;991;-62
2023/06/18 05:12:39;;;;;;;;;;;;;;;20.39;100.00;99159.38;5013748;28;1234;-63
2023/06/18 05:15:06;;;;;;;;;;;;;;;20.48;100.00;99166.13;5013885;28;843;-63
2023/06/18 05:17:34;;;;;;;;;;;;;;;20.57;100.00;99166.84;5013822;28;898;-62
2023/06/18 05:20:01;;;;;;;;;;;;;;;20.67;100.00;99170.28;5013786;28;909;-62
2023/06/18 05:22:28;;;;;;;;;;;;;;;20.75;100.00;99165.06;5013657;28;843;-63
2023/06/18 05:24:55;;;;;;;;;;;;;;;20.90;100.00;99176.25;4996148;28;906;-62
2023/06/18 05:27:22;;;;;;;;;;;;;;;20.99;100.00;99179.72;5013568;28;1914;-61
2023/06/18 05:29:49;;;;;;;;;;;;;;;21.06;100.00;99181.31;5013608;28;811;-62
2023/06/18 05:32:15;;;;;;;;;;;;;;;21.21;100.00;99178.47;5013505;28;873;-63
2023/06/18 05:34:42;;;;;;;;;;;;;;;21.36;100.00;99175.59;5013528;28;823;-65
2023/06/18 05:37:10;;;;;;;;;;;;;;;21.45;100.00;99185.94;5013486;28;882;-63
2023/06/18 05:39:37;;;;;;;;;;;;;;;21.60;100.00;99178.19;5013415;28;811;-63
2023/06/18 05:42:04;;;;;;;;;;;;;;;21.75;100.00;99178.88;5013465;28;835;-63
2023/06/18 05:44:31;;;;;;;;;;;;;;;21.87;100.00;99176.16;5013482;28;898;-64
2023/06/18 05:46:58;;;;;;;;;;;;;;;22.04;100.00;99179.94;5013210;28;1947;-63
2023/06/18 05:49:25;;;;;;;;;;;;;;;22.14;100.00;99180.53;5013571;28;819;-64
2023/06/18 05:51:52;;;;;;;;;;;;;;;22.18;100.00;99179.03;5013092;28;898;-65
2023/06/18 06:06:30;;;;;;;;;;;;;;;23.05;100.00;99182.03;5013320;28;1894;-64
2023/06/18 06:21:45;;;;;;;;;;;;;;;21.90;100.00;99186.44;5012412;28;1159;-63
2023/06/18 06:36:23;;;;;;;;;;;;;;;21.19;100.00;99209.09;5012737;28;668;-63
2023/06/18 06:38:50;;;;;;;;;;;;;;;21.23;100.00;99209.66;5012427;28;815;-64
2023/06/18 06:44:55;;;;;;;;;;;;;;;21.29;100.00;99213.28;5012385;28;621;-63
2023/06/18 06:47:22;;;;;;;;;;;;;;;21.27;100.00;99212.25;5012150;28;1898;-63
2023/06/18 06:49:49;;;;;;;;;;;;;;;21.42;100.00;99207.34;4994560;28;1638;-62
2023/06/18 06:52:16;;;;;;;;;;;;;;;21.48;100.00;99201.81;5012244;28;826;-63
2023/06/18 06:54:42;;;;;;;;;;;;;;;21.50;100.00;99219.72;5012142;28;807;-64
2023/06/18 06:57:09;;;;;;;;;;;;;;;21.53;100.00;99224.38;5012128;28;811;-64
2023/06/18 06:59:36;;;;;;;;;;;;;;;21.81;100.00;99224.72;5012035;28;870;-63
2023/06/18 07:02:03;;;;;;;;;;;;;;;22.26;100.00;99223.66;5012304;28;799;-63
2023/06/18 07:04:29;;;;;;;;;;;;;;;23.36;100.00;99215.75;5012018;28;898;-64
2023/06/18 07:06:55;;;;;;;;;;;;;;;24.38;100.00;99216.06;5011928;28;1957;-62
2023/06/18 07:09:21;;;;;;;;;;;;;;;24.48;100.00;99214.53;5011728;28;807;-62
2023/06/18 07:11:48;;;;;;;;;;;;;;;24.11;100.00;99224.00;5012315;28;1026;-64
2023/06/18 07:14:15;;;;;;;;;;;;;;;23.58;100.00;99225.59;5011826;28;894;-65
2023/06/18 07:16:43;;;;;;;;;;;;;;;23.23;100.00;99227.47;5011868;28;878;-64
2023/06/18 07:19:15;;;;;;;;;;;;;;;23.03;100.00;99233.25;5011764;28;859;-66
2023/06/18 07:21:50;;;;;;;;;;;;;;;23.27;100.00;99224.41;5011648;28;1197;-63
2023/06/18 07:24:17;;;;;;;;;;;;;;;23.75;100.00;99229.25;5011785;28;858;-62
2023/06/18 07:38:56;;;;;;;;;;;;;;;27.03;99.32;99244.03;5011987;28;705;-63
2023/06/18 07:44:25;;;;;;;;;;;;;;;27.14;96.22;99242.38;5011597;28;661;-64
2023/06/18 07:46:52;;;;;;;;;;;;;;;26.81;98.03;99235.75;5011578;28;1902;-64
2023/06/18 07:49:21;;;;;;;;;;;;;;;26.63;99.29;99234.38;5011341;28;1255;-65
2023/06/18 07:51:48;;;;;;;;;;;;;;;26.83;99.59;99233.91;5011546;28;874;-62
2023/06/18 07:54:22;;;;;;;;;;;;;;;27.03;96.46;99227.00;5011619;28;835;-67
2023/06/18 07:56:50;;;;;;;;;;;;;;;26.57;99.68;99250.63;5011430;28;1122;-63
2023/06/18 07:59:17;;;;;;;;;;;;;;;26.80;98.44;99257.66;5011477;28;820;-63
2023/06/18 08:01:44;;;;;;;;;;;;;;;27.07;96.34;99250.16;5011386;28;894;-64
2023/06/18 08:04:10;;;;;;;;;;;;;;;27.08;96.47;99263.06;5011498;28;815;-64
2023/06/18 08:18:47;;;;;;;;;;;;;;;27.78;93.87;99273.16;5011686;28;650;-63
2023/06/18 08:21:13;;;;;;;;;;;;;;;27.93;94.80;99272.72;5013551;28;1420;-64
2023/06/18 08:26:48;;;;;;;;;;;;;;;28.22;90.65;99271.06;5014761;28;1911;-64
2023/06/18 08:29:14;;;;;;;;;;;;;;;28.16;91.27;99268.28;5014764;28;823;-67
2023/06/18 08:31:42;;;;;;;;;;;;;;;28.46;89.30;99279.50;5014747;28;811;-64
2023/06/18 08:34:08;;;;;;;;;;;;;;;28.29;90.33;99273.25;5014657;28;841;-65
2023/06/18 08:36:35;;;;;;;;;;;;;;;27.96;91.11;99261.06;5014674;28;814;-64
2023/06/18 08:39:02;;;;;;;;;;;;;;;28.05;91.59;99274.88;5014567;28;874;-64
2023/06/18 08:41:29;;;;;;;;;;;;;;;28.07;92.10;99277.19;5014566;28;795;-65
2023/06/18 08:43:56;;;;;;;;;;;;;;;27.65;92.53;99285.19;5014457;28;799;-65
2023/06/18 08:46:26;;;;;;;;;;;;;;;27.37;93.95;99277.75;5014432;28;1957;-64
2023/06/18 08:48:56;;;;;;;;;;;;;;;27.42;95.22;99276.94;5014541;28;837;-65
2023/06/18 08:51:24;;;;;;;;;;;;;;;27.33;96.01;99285.78;5014409;28;799;-65
2023/06/18 08:53:55;;;;;;;;;;;;;;;27.58;94.15;99278.03;5014303;28;835;-65
2023/06/18 08:56:26;;;;;;;;;;;;;;;27.27;95.20;99279.44;5014254;28;975;-64
2023/06/18 08:58:57;;;;;;;;;;;;;;;27.63;93.93;99285.72;5014257;28;906;-66
2023/06/18 09:01:26;;;;;;;;;;;;;;;27.73;93.68;99283.28;5014147;28;870;-65
2023/06/18 09:03:54;;;;;;;;;;;;;;;27.83;92.51;99278.00;5014233;28;811;-63
2023/06/18 09:06:22;;;;;;;;;;;;;;;27.99;93.41;99279.13;5014174;28;851;-65
2023/06/18 09:08:49;;;;;;;;;;;;;;;27.93;91.88;99284.88;5014401;28;783;-65
2023/06/18 09:11:15;;;;;;;;;;;;;;;27.55;94.61;99275.50;5014391;28;983;-65
2023/06/18 09:13:42;;;;;;;;;;;;;;;27.76;92.93;99276.53;5014278;28;803;-64
2023/06/18 09:16:10;;;;;;;;;;;;;;;27.79;93.13;99275.47;5014179;28;850;-65
2023/06/18 09:18:37;;;;;;;;;;;;;;;27.74;92.63;99270.63;4996485;28;1293;-64
2023/06/18 09:21:04;;;;;;;;;;;;;;;27.69;95.16;99272.22;5013575;28;1278;-64
2023/06/18 09:23:31;;;;;;;;;;;;;;;27.77;92.67;99272.38;5014201;28;779;-63
2023/06/18 09:25:59;;;;;;;;;;;;;;;27.60;94.67;99275.44;5013912;28;783;-65
2023/06/18 09:28:27;;;;;;;;;;;;;;;27.67;94.59;99274.84;5013846;28;1973;-65
2023/06/18 09:31:00;;;;;;;;;;;;;;;27.72;96.04;99270.41;5013746;28;808;-66
2023/06/18 09:33:34;;;;;;;;;;;;;;;27.98;92.85;99263.38;5013669;28;811;-66
2023/06/18 09:36:08;;;;;;;;;;;;;;;27.75;92.51;99275.00;5013434;28;846;-66
2023/06/18 09:38:36;;;;;;;;;;;;;;;27.58;95.02;99278.03;5013777;28;847;-64
2023/06/18 10:12:31;;;;;;;;;;;;;;;27.79;95.27;99263.34;5009626;28;1641;-56
2023/06/18 10:14:58;;;;;;;;;;;;;;;27.86;92.13;99271.28;5012978;28;858;-55
2023/06/18 10:17:31;;;;;;;;;;;;;;;27.71;93.59;99263.16;5012945;28;822;-56
2023/06/18 10:20:08;;;;;;;;;;;;;;;27.81;93.05;99266.41;5012754;28;830;-53
2023/06/18 10:22:46;;;;;;;;;;;;;;;28.06;91.38;99267.91;5012690;28;980;-55
2023/06/18 10:28:15;;;;;;;;;;;;;;;27.87;92.31;99253.72;5012831;28;1918;-54
2023/06/18 10:30:42;;;;;;;;;;;;;;;28.03;92.17;99260.44;5012826;28;869;-56
2023/06/18 10:33:12;;;;;;;;;;;;;;;28.09;91.44;99243.34;5012531;28;1084;-55
2023/06/18 10:35:39;;;;;;;;;;;;;;;27.97;90.57;99256.91;5012354;28;882;-54
2023/06/18 10:38:06;;;;;;;;;;;;;;;28.15;90.97;99243.28;5012376;28;795;-55
2023/06/18 10:40:37;;;;;;;;;;;;;;;28.34;90.78;99243.25;5012401;28;827;-55
2023/06/18 10:43:08;;;;;;;;;;;;;;;28.46;88.91;99244.59;5011980;28;802;-55
2023/06/18 10:45:35;;;;;;;;;;;;;;;28.60;89.01;99242.59;5012150;28;823;-54
2023/06/18 10:48:23;;;;;;;;;;;;;;;28.67;88.67;99239.13;5012331;28;1969;-55
2023/06/18 10:51:08;;;;;;;;;;;;;;;29.19;87.40;99234.09;5012330;28;810;-56
2023/06/18 10:53:34;;;;;;;;;;;;;;;29.44;81.60;99226.09;5012074;28;919;-56
2023/06/18 10:56:01;;;;;;;;;;;;;;;29.47;75.05;99217.22;5012172;28;917;-57
2023/06/18 10:58:34;;;;;;;;;;;;;;;29.38;70.84;99223.38;5011984;28;835;-57
2023/06/18 11:01:01;;;;;;;;;;;;;;;29.42;70.52;99223.03;5012368;28;826;-56
2023/06/18 11:03:35;;;;;;;;;;;;;;;29.74;68.31;99216.44;5012059;28;795;-57
2023/06/18 11:06:02;;;;;;;;;;;;;;;30.19;67.11;99224.75;5012699;28;831;-56
2023/06/18 11:08:34;;;;;;;;;;;;;;;30.31;64.81;99216.75;5012237;28;1878;-56
2023/06/18 11:11:01;;;;;;;;;;;;;;;30.46;64.17;99211.19;5012001;28;1298;-56
2023/06/18 11:13:33;;;;;;;;;;;;;;;30.66;64.51;99214.56;5011981;28;831;-56
2023/06/18 11:16:10;;;;;;;;;;;;;;;30.88;63.73;99205.47;5011976;28;810;-56
2023/06/18 11:18:39;;;;;;;;;;;;;;;30.66;61.90;99206.03;5011880;28;854;-56
2023/06/18 11:21:05;;;;;;;;;;;;;;;30.37;61.56;99208.81;5012105;28;843;-56
2023/06/18 11:23:32;;;;;;;;;;;;;;;29.84;64.21;99212.59;5012370;28;807;-54
2023/06/18 11:25:59;;;;;;;;;;;;;;;29.99;64.08;99211.25;5012484;28;779;-56
2023/06/18 11:28:25;;;;;;;;;;;;;;;30.48;61.71;99219.19;5012001;28;1919;-56
2023/06/18 11:30:58;;;;;;;;;;;;;;;31.04;59.86;99217.75;5011971;28;937;-56
2023/06/18 11:33:26;;;;;;;;;;;;;;;31.09;58.01;99219.72;5011752;28;901;-57
2023/06/18 11:35:54;;;;;;;;;;;;;;;31.20;57.22;99223.59;5011756;28;806;-56
2023/06/18 11:38:22;;;;;;;;;;;;;;;30.99;56.58;99235.03;5011824;28;815;-56
2023/06/18 11:40:49;;;;;;;;;;;;;;;31.14;55.78;99224.50;5011566;28;875;-57
2023/06/18 11:43:17;;;;;;;;;;;;;;;30.56;56.81;99236.38;5011628;28;1118;-56
2023/06/18 11:45:49;;;;;;;;;;;;;;;30.89;57.04;99217.66;5011564;28;882;-56
2023/06/18 11:48:17;;;;;;;;;;;;;;;31.30;55.76;99213.16;5011504;28;1947;-56
2023/06/18 11:50:44;;;;;;;;;;;;;;;31.45;54.92;99215.38;5011428;28;954;-56
2023/06/18 11:53:11;;;;;;;;;;;;;;;31.58;54.73;99215.25;5011476;28;914;-57
2023/06/18 11:55:38;;;;;;;;;;;;;;;31.83;51.14;99212.69;5013024;28;897;-57
2023/06/18 11:58:06;;;;;;;;;;;;;;;32.02;49.13;99217.34;5015427;28;811;-56
2023/06/18 12:00:32;;;;;;;;;;;;;;;32.08;49.73;99215.09;5015330;28;873;-56
2023/06/18 12:03:02;;;;;;;;;;;;;;;32.12;48.48;99229.75;5014057;28;1193;-56
2023/06/18 12:05:37;;;;;;;;;;;;;;;31.66;48.88;99224.59;5015288;28;905;-56
2023/06/18 12:08:13;;;;;;;;;;;;;;;31.62;48.87;99226.31;5015145;28;1954;-57
2023/06/18 12:10:44;;;;;;;;;;;;;;;31.52;49.36;99223.97;5015401;28;1056;-56
2023/06/18 12:13:40;;;;;;;;;;;;;;;31.87;49.33;99220.88;5014999;28;1324;-56
2023/06/18 12:16:12;;;;;;;;;;;;;;;31.99;48.03;99224.97;5006478;28;1410;-56
2023/06/18 12:18:41;;;;;;;;;;;;;;;32.29;46.85;99223.50;4997441;28;1189;-56
2023/06/18 12:21:08;;;;;;;;;;;;;;;32.53;46.03;99225.84;5015018;28;798;-57
2023/06/18 12:23:39;;;;;;;;;;;;;;;32.53;45.56;99220.13;5014892;28;842;-56
2023/06/18 12:26:06;;;;;;;;;;;;;;;32.48;45.46;99212.47;5014966;28;881;-57
2023/06/18 12:28:34;;;;;;;;;;;;;;;32.13;46.22;99214.91;5014812;28;1910;-56
2023/06/18 12:31:07;;;;;;;;;;;;;;;32.61;45.33;99220.16;5014700;28;981;-56
2023/06/18 12:33:37;;;;;;;;;;;;;;;32.57;43.69;99219.75;5015006;28;849;-57
2023/06/18 12:36:05;;;;;;;;;;;;;;;32.71;43.54;99221.09;5014720;28;1029;-57
2023/06/18 12:38:41;;;;;;;;;;;;;;;32.93;43.87;99224.53;5014589;28;843;-56
2023/06/18 12:44:13;;;;;;;;;;;;;;;32.18;43.60;99218.13;5014672;28;597;-57
2023/06/18 12:49:41;;;;;;;;;;;;;;;31.78;43.05;99215.72;5014517;28;589;-56
2023/06/18 12:52:16;;;;;;;;;;;;;;;31.95;42.67;99218.81;5014454;28;909;-56
2023/06/18 12:54:44;;;;;;;;;;;;;;;31.69;43.38;99211.31;5014292;28;862;-56
2023/06/18 12:57:13;;;;;;;;;;;;;;;31.67;43.54;99214.72;5014341;28;838;-55
2023/06/18 12:59:47;;;;;;;;;;;;;;;31.52;44.54;99206.84;5014271;28;842;-56
2023/06/18 13:02:14;;;;;;;;;;;;;;;30.96;46.21;99210.47;5014892;28;755;-56
2023/06/18 13:04:41;;;;;;;;;;;;;;;31.00;46.93;99202.31;5014828;28;857;-56
2023/06/18 13:07:07;;;;;;;;;;;;;;;30.51;48.11;99203.81;5014272;28;1949;-57
2023/06/18 13:12:38;;;;;;;;;;;;;;;30.86;47.18;99210.19;5011571;28;1161;-57
2023/06/18 13:15:06;;;;;;;;;;;;;;;30.98;46.44;99217.13;5013996;28;839;-56
2023/06/18 13:17:33;;;;;;;;;;;;;;;30.59;46.77;99212.44;5014024;28;819;-56
2023/06/18 13:19:59;;;;;;;;;;;;;;;29.58;48.94;99209.78;5013861;28;799;-56
2023/06/18 13:25:29;;;;;;;;;;;;;;;29.86;49.96;99200.66;5013847;28;618;-56
2023/06/18 13:27:56;;;;;;;;;;;;;;;30.07;49.17;99197.84;5013595;28;1914;-56
2023/06/18 13:30:23;;;;;;;;;;;;;;;29.62;50.58;99199.59;5013640;28;843;-57
2023/06/18 13:35:52;;;;;;;;;;;;;;;28.89;53.87;99201.78;5013658;28;668;-57
2023/06/18 13:38:19;;;;;;;;;;;;;;;29.23;52.99;99184.09;5013476;28;787;-56
2023/06/18 13:40:46;;;;;;;;;;;;;;;29.83;51.53;99191.13;5012327;28;1208;-55
2023/06/18 13:43:14;;;;;;;;;;;;;;;29.96;50.62;99203.78;5013569;28;843;-56
2023/06/18 13:45:42;;;;;;;;;;;;;;;30.01;49.08;99202.91;5013520;28;795;-56
2023/06/18 13:48:09;;;;;;;;;;;;;;;29.97;49.27;99196.78;5013145;28;1894;-56
2023/06/18 13:50:35;;;;;;;;;;;;;;;29.61;50.68;99198.03;5013265;28;839;-56
2023/06/18 13:53:02;;;;;;;;;;;;;;;29.58;51.39;99196.31;4995567;28;1197;-57
2023/06/18 13:55:29;;;;;;;;;;;;;;;29.24;52.66;99202.69;5013515;28;776;-56
2023/06/18 13:57:56;;;;;;;;;;;;;;;29.06;53.34;99198.63;5013224;28;877;-56
2023/06/18 14:00:22;;;;;;;;;;;;;;;29.21;53.30;99203.78;5013092;28;842;-56
2023/06/18 14:02:49;;;;;;;;;;;;;;;29.36;53.29;99200.41;5013355;28;811;-55
2023/06/18 14:05:17;;;;;;;;;;;;;;;29.33;53.04;99190.09;5013396;28;834;-56
2023/06/18 14:07:43;;;;;;;;;;;;;;;29.10;53.00;99189.75;5012789;28;1894;-56
2023/06/18 14:10:09;;;;;;;;;;;;;;;29.04;53.80;99194.75;5013284;28;941;-56
2023/06/18 14:12:36;;;;;;;;;;;;;;;28.97;52.17;99201.88;5013037;28;1296;-56
2023/06/18 14:15:03;;;;;;;;;;;;;;;29.03;52.25;99205.38;5013239;28;822;-56
2023/06/18 14:29:41;;;;;;;;;;;;;;;29.18;53.37;99204.13;5012814;28;597;-57
2023/06/18 14:32:13;;;;;;;;;;;;;;;29.05;53.18;99219.81;5012528;28;858;-56
2023/06/18 14:34:39;;;;;;;;;;;;;;;28.82;53.48;99198.78;5012656;28;804;-56
2023/06/18 14:37:06;;;;;;;;;;;;;;;28.99;53.79;99210.63;5012614;28;807;-56
2023/06/18 14:39:33;;;;;;;;;;;;;;;29.06;53.26;99204.31;5012794;28;838;-55
2023/06/18 14:42:00;;;;;;;;;;;;;;;29.24;52.89;99216.16;5012846;28;775;-55
2023/06/18 14:44:29;;;;;;;;;;;;;;;28.79;54.38;99206.34;5012755;28;811;-56
2023/06/18 14:46:55;;;;;;;;;;;;;;;28.34;55.49;99203.47;5012176;28;1886;-56
2023/06/18 14:49:22;;;;;;;;;;;;;;;28.55;55.49;99201.59;5012377;28;885;-56
2023/06/18 14:51:49;;;;;;;;;;;;;;;28.60;55.10;99195.03;5012441;28;874;-56
2023/06/18 15:06:27;;;;;;;;;;;;;;;28.04;56.92;99201.59;5012280;28;606;-56
2023/06/18 15:08:53;;;;;;;;;;;;;;;27.90;55.97;99195.06;5011858;28;1871;-56
2023/06/18 15:11:20;;;;;;;;;;;;;;;27.68;54.91;99208.25;5012237;28;976;-57
2023/06/18 15:13:51;;;;;;;;;;;;;;;27.79;55.61;99200.88;5011813;28;1389;-56
2023/06/18 15:16:17;;;;;;;;;;;;;;;27.80;56.38;99200.34;5012594;28;847;-56
2023/06/18 15:18:44;;;;;;;;;;;;;;;27.73;57.14;99192.44;5011955;28;847;-57
2023/06/18 15:21:11;;;;;;;;;;;;;;;27.26;58.83;99196.38;5011956;28;850;-56
2023/06/18 15:26:42;;;;;;;;;;;;;;;27.11;61.57;99203.75;5011705;28;1997;-56
2023/06/18 15:29:09;;;;;;;;;;;;;;;27.13;60.81;99212.50;5013208;28;956;-56
2023/06/18 15:31:35;;;;;;;;;;;;;;;27.01;60.49;99204.13;5018574;28;882;-56
2023/06/18 15:34:04;;;;;;;;;;;;;;;26.84;60.53;99224.13;5018259;28;808;-55
2023/06/18 15:36:31;;;;;;;;;;;;;;;26.73;59.57;99229.13;5018083;28;1149;-56
2023/06/18 15:38:58;;;;;;;;;;;;;;;26.71;57.42;99240.22;5018167;28;839;-56
2023/06/18 15:41:24;;;;;;;;;;;;;;;26.65;56.33;99255.22;5016918;28;1296;-55
2023/06/18 15:43:52;;;;;;;;;;;;;;;26.55;55.28;99261.69;5017989;28;954;-54
2023/06/18 15:46:17;;;;;;;;;;;;;;;26.42;55.92;99270.81;5018166;28;811;-57